createdAt,value
2022-07-27T00:01:59.349Z,61.60
2022-07-27T00:05:01.131Z,49.50
2022-07-27T00:08:02.830Z,47.60
2022-07-27T00:11:05.222Z,50.40
2022-07-27T00:14:07.183Z,43.50
2022-07-27T00:17:08.885Z,45.60
2022-07-27T00:20:10.998Z,45.50
2022-07-27T00:23:12.964Z,43.10
2022-07-27T00:26:14.863Z,43.50
2022-07-27T00:29:16.655Z,42.90
2022-07-27T00:32:18.428Z,36.90
2022-07-27T00:35:20.161Z,42.70
2022-07-27T00:38:22.029Z,43.10
2022-07-27T00:41:23.812Z,40.30
2022-07-27T00:44:26.729Z,37.60
2022-07-27T00:47:28.494Z,39.90
2022-07-27T00:50:30.366Z,40.10
2022-07-27T00:53:32.043Z,43.30
2022-07-27T00:56:33.982Z,42.80
2022-07-27T00:59:35.897Z,43.30
2022-07-27T01:02:37.990Z,44.10
2022-07-27T01:05:48.051Z,38.40
2022-07-27T01:08:49.942Z,43.90
2022-07-27T01:11:51.761Z,40.10
2022-07-27T01:14:54.394Z,40.50
2022-07-27T01:17:56.193Z,40.60
2022-07-27T01:20:59.815Z,41.80
2022-07-27T01:24:02.071Z,41.20
2022-07-27T01:27:05.872Z,42.00
2022-07-27T01:30:26.519Z,38.10
2022-07-27T01:33:28.513Z,40.30
2022-07-27T01:36:30.264Z,41.00
2022-07-27T01:39:32.885Z,41.50
2022-07-27T01:42:35.568Z,39.80
2022-07-27T01:45:37.471Z,37.10
2022-07-27T01:48:39.572Z,36.80
2022-07-27T01:51:41.580Z,36.00
2022-07-27T01:54:43.351Z,33.50
2022-07-27T01:57:45.227Z,38.70
2022-07-27T02:00:49.013Z,31.50
2022-07-27T02:03:50.736Z,36.00
2022-07-27T02:06:52.475Z,33.50
2022-07-27T02:09:54.211Z,30.50
2022-07-27T02:12:55.978Z,33.30
2022-07-27T02:15:58.423Z,35.90
2022-07-27T02:19:00.293Z,34.20
2022-07-27T02:22:06.709Z,36.90
2022-07-27T02:25:09.170Z,37.50
2022-07-27T02:28:10.915Z,35.40
2022-07-27T02:31:12.683Z,36.80
2022-07-27T02:34:14.443Z,41.00
2022-07-27T02:37:16.558Z,31.70
2022-07-27T02:40:18.804Z,39.60
2022-07-27T02:43:20.560Z,34.90
2022-07-27T02:46:22.388Z,33.80
2022-07-27T02:49:24.317Z,34.50
2022-07-27T02:52:26.043Z,33.30
2022-07-27T02:55:27.936Z,33.50
2022-07-27T02:58:29.880Z,33.30
2022-07-27T03:01:31.668Z,32.70
2022-07-27T03:04:33.597Z,34.80
2022-07-27T03:07:35.468Z,36.50
2022-07-27T03:10:37.322Z,36.70
2022-07-27T03:13:39.468Z,37.40
2022-07-27T03:16:41.262Z,39.70
2022-07-27T03:19:43.050Z,36.50
2022-07-27T03:22:45.070Z,37.20
2022-07-27T03:25:46.788Z,38.00
2022-07-27T03:28:48.509Z,35.40
2022-07-27T03:31:50.244Z,42.30
2022-07-27T03:34:52.113Z,38.20
2022-07-27T03:37:53.784Z,33.10
2022-07-27T03:40:55.586Z,33.80
2022-07-27T03:43:57.323Z,34.40
2022-07-27T03:46:59.252Z,31.50
2022-07-27T03:50:00.985Z,33.10
2022-07-27T03:53:02.911Z,32.80
2022-07-27T03:56:04.940Z,33.50
2022-07-27T03:59:06.726Z,30.20
2022-07-27T04:02:08.992Z,32.20
2022-07-27T04:05:11.996Z,30.90
2022-07-27T04:08:13.737Z,34.40
2022-07-27T04:11:15.489Z,36.00
2022-07-27T04:14:19.997Z,32.30
2022-07-27T04:17:55.024Z,30.30
2022-07-27T04:20:43.581Z,29.80
2022-07-27T04:23:45.256Z,29.30
2022-07-27T04:26:46.993Z,30.20
2022-07-27T04:29:48.934Z,28.40
2022-07-27T04:32:50.822Z,31.20
2022-07-27T04:35:52.599Z,29.80
2022-07-27T04:38:54.303Z,28.10
2022-07-27T04:41:56.078Z,28.90
2022-07-27T04:44:57.824Z,30.20
2022-07-27T04:47:59.507Z,35.30
2022-07-27T04:51:01.575Z,29.50
2022-07-27T04:54:03.844Z,33.70
2022-07-27T04:57:05.533Z,31.00
2022-07-27T05:00:08.499Z,31.00
2022-07-27T05:03:10.823Z,31.80
2022-07-27T05:06:12.620Z,33.10
2022-07-27T05:09:14.564Z,30.50
2022-07-27T05:12:16.566Z,31.90
2022-07-27T05:15:18.529Z,28.20
2022-07-27T05:18:20.759Z,27.60
2022-07-27T05:21:22.474Z,29.60
2022-07-27T05:24:24.414Z,28.40
2022-07-27T05:27:26.248Z,27.30
2022-07-27T05:30:28.109Z,28.30
2022-07-27T05:33:30.943Z,27.60
2022-07-27T05:36:32.831Z,26.20
2022-07-27T05:39:35.116Z,26.80
2022-07-27T05:42:37.039Z,24.60
2022-07-27T05:45:38.949Z,27.30
2022-07-27T05:48:41.010Z,27.60
2022-07-27T05:51:43.760Z,27.90
2022-07-27T05:54:45.543Z,28.50
2022-07-27T05:57:47.419Z,26.60
2022-07-27T06:00:49.465Z,29.00
2022-07-27T06:03:51.604Z,27.40
2022-07-27T06:07:11.951Z,28.10
2022-07-27T06:10:14.028Z,30.50
2022-07-27T06:13:15.833Z,30.40
2022-07-27T06:16:17.772Z,29.70
2022-07-27T06:19:21.318Z,29.00
2022-07-27T06:22:26.581Z,29.60
2022-07-27T06:25:33.962Z,27.30
2022-07-27T06:28:37.818Z,27.40
2022-07-27T06:31:39.782Z,27.50
2022-07-27T06:34:44.541Z,27.20
2022-07-27T06:37:52.907Z,27.90
2022-07-27T06:40:55.568Z,30.70
2022-07-27T06:43:57.395Z,27.40
2022-07-27T06:46:59.750Z,27.40
2022-07-27T06:50:02.160Z,28.00
2022-07-27T06:53:04.027Z,30.00
2022-07-27T06:56:05.861Z,28.90
2022-07-27T06:59:07.646Z,29.00
2022-07-27T07:02:09.486Z,28.00
2022-07-27T07:05:11.439Z,28.30
2022-07-27T07:08:14.814Z,27.10
2022-07-27T07:11:16.853Z,26.50
2022-07-27T07:14:18.657Z,28.00
2022-07-27T07:17:20.711Z,27.70
2022-07-27T07:20:23.048Z,31.10
2022-07-27T07:23:24.940Z,26.30
2022-07-27T07:26:26.815Z,23.60
2022-07-27T07:29:28.609Z,26.50
2022-07-27T07:32:33.615Z,25.90
2022-07-27T07:35:35.733Z,24.40
2022-07-27T07:38:37.740Z,22.60
2022-07-27T07:41:40.562Z,26.30
2022-07-27T07:44:42.989Z,23.60
2022-07-27T07:47:44.927Z,22.10
2022-07-27T07:50:46.890Z,27.80
2022-07-27T07:53:54.623Z,24.20
2022-07-27T07:56:56.314Z,23.30
2022-07-27T07:59:58.075Z,22.50
2022-07-27T08:03:00.229Z,23.00
2022-07-27T08:06:02.295Z,22.70
2022-07-27T08:09:05.141Z,22.00
2022-07-27T08:12:07.135Z,22.10
2022-07-27T08:15:10.195Z,23.40
2022-07-27T08:18:12.108Z,21.10
2022-07-27T08:21:13.885Z,22.20
2022-07-27T08:24:15.725Z,23.10
2022-07-27T08:27:17.788Z,18.50
2022-07-27T08:30:19.751Z,25.80
2022-07-27T08:33:21.663Z,26.60
2022-07-27T08:36:23.462Z,20.70
2022-07-27T08:40:19.903Z,22.20
2022-07-27T08:42:47.354Z,20.40
2022-07-27T08:45:57.094Z,21.20
2022-07-27T08:49:01.505Z,21.00
2022-07-27T08:52:03.474Z,25.20
2022-07-27T08:55:05.574Z,19.70
2022-07-27T08:58:08.183Z,19.00
2022-07-27T09:01:10.134Z,22.40
2022-07-27T09:04:12.067Z,18.60
2022-07-27T09:07:31.249Z,20.60
2022-07-27T09:10:35.316Z,18.60
2022-07-27T09:13:37.536Z,18.00
2022-07-27T09:17:28.436Z,21.40
2022-07-27T09:20:07.224Z,22.10
2022-07-27T09:23:09.067Z,22.50
2022-07-27T09:26:35.082Z,17.20
2022-07-27T09:29:37.228Z,20.00
2022-07-27T09:32:40.111Z,21.70
2022-07-27T09:35:42.046Z,18.90
2022-07-27T09:39:02.083Z,17.60
2022-07-27T09:42:04.649Z,17.10
2022-07-27T09:45:33.989Z,19.20
2022-07-27T09:48:37.167Z,22.80
2022-07-27T09:52:02.507Z,19.30
2022-07-27T09:55:06.112Z,21.70
2022-07-27T09:58:08.267Z,20.40
2022-07-27T10:01:21.835Z,17.60
2022-07-27T10:04:25.204Z,18.30
2022-07-27T10:07:27.059Z,18.00
2022-07-27T10:10:29.079Z,19.80
2022-07-27T10:13:30.894Z,19.20
2022-07-27T10:16:34.473Z,19.00
2022-07-27T10:19:47.616Z,18.60
2022-07-27T10:22:53.540Z,17.50
2022-07-27T10:26:15.109Z,17.50
2022-07-27T10:29:20.334Z,19.40
2022-07-27T10:32:33.217Z,18.60
2022-07-27T10:35:35.594Z,20.90
2022-07-27T10:38:52.209Z,18.90
2022-07-27T10:41:53.861Z,17.50
2022-07-27T10:45:03.001Z,15.90
2022-07-27T10:48:04.991Z,18.70
2022-07-27T10:51:07.423Z,22.00
2022-07-27T10:54:34.372Z,18.10
2022-07-27T10:57:38.775Z,17.20
2022-07-27T11:00:54.010Z,20.50
2022-07-27T11:04:08.966Z,19.60
2022-07-27T11:07:34.229Z,15.60
2022-07-27T11:10:43.619Z,20.90
2022-07-27T11:13:47.102Z,19.60
2022-07-27T11:16:56.735Z,15.00
2022-07-27T11:20:03.990Z,15.80
2022-07-27T11:26:50.111Z,16.20
2022-07-27T11:29:51.943Z,17.20
2022-07-27T11:32:54.412Z,17.70
2022-07-27T11:35:59.516Z,16.90
2022-07-27T11:39:01.267Z,18.80
2022-07-27T11:42:09.011Z,19.30
2022-07-27T11:45:28.807Z,17.10
2022-07-27T11:48:43.990Z,17.90
2022-07-27T11:51:53.143Z,18.30
2022-07-27T11:54:54.953Z,22.60
2022-07-27T11:58:04.465Z,18.10
2022-07-27T12:04:18.940Z,20.80
2022-07-27T12:07:33.363Z,17.30
2022-07-27T12:10:37.671Z,20.30
2022-07-27T12:13:39.580Z,18.40
2022-07-27T12:16:41.512Z,18.30
2022-07-27T12:19:43.683Z,16.90
2022-07-27T12:22:47.711Z,19.20
2022-07-27T12:25:49.762Z,17.80
2022-07-27T12:29:08.540Z,20.00
2022-07-27T12:32:10.435Z,18.60
2022-07-27T12:35:37.398Z,19.40
2022-07-27T12:38:43.654Z,18.50
2022-07-27T12:41:46.006Z,20.20
2022-07-27T12:44:48.565Z,21.80
2022-07-27T12:47:50.281Z,22.10
2022-07-27T12:51:02.642Z,19.30
2022-07-27T12:54:04.509Z,18.20
2022-07-27T12:57:06.309Z,18.10
2022-07-27T13:00:14.389Z,20.40
2022-07-27T13:03:16.436Z,19.30
2022-07-27T13:06:18.234Z,20.60
2022-07-27T13:09:20.020Z,19.40
2022-07-27T13:12:22.284Z,18.70
2022-07-27T13:15:24.287Z,19.30
2022-07-27T13:18:26.137Z,18.20
2022-07-27T13:21:27.993Z,18.30
2022-07-27T13:24:29.764Z,21.80
2022-07-27T13:27:31.579Z,17.00
2022-07-27T13:30:33.364Z,18.80
2022-07-27T13:33:35.028Z,20.40
2022-07-27T13:36:36.799Z,15.10
2022-07-27T13:39:38.620Z,18.50
2022-07-27T13:42:40.471Z,16.80
2022-07-27T13:45:43.576Z,17.80
2022-07-27T13:48:45.734Z,14.20
2022-07-27T13:51:47.946Z,15.50
2022-07-27T13:54:50.358Z,20.40
2022-07-27T13:57:52.129Z,13.40
2022-07-27T14:00:54.207Z,16.50
2022-07-27T14:03:56.131Z,12.90
2022-07-27T14:06:58.947Z,15.90
2022-07-27T14:10:19.391Z,17.30
2022-07-27T14:13:22.485Z,15.80
2022-07-27T14:16:24.901Z,20.90
2022-07-27T14:19:28.243Z,13.40
2022-07-27T14:22:29.929Z,13.20
2022-07-27T14:25:31.731Z,15.80
2022-07-27T14:28:33.786Z,13.10
2022-07-27T14:31:35.749Z,16.50
2022-07-27T14:34:37.636Z,15.20
2022-07-27T14:37:39.528Z,14.60
2022-07-27T14:40:41.477Z,18.20
2022-07-27T14:43:43.651Z,13.10
2022-07-27T14:46:45.571Z,12.00
2022-07-27T14:49:47.425Z,12.00
2022-07-27T14:52:49.938Z,13.10
2022-07-27T14:55:51.728Z,10.40
2022-07-27T14:58:53.545Z,12.20
2022-07-27T15:01:55.457Z,11.80
2022-07-27T15:04:57.432Z,10.90
2022-07-27T15:07:59.805Z,10.70
2022-07-27T15:11:01.530Z,10.10
2022-07-27T15:14:05.214Z,15.00
2022-07-27T15:17:07.193Z,11.20
2022-07-27T15:20:09.200Z,11.50
2022-07-27T15:23:11.059Z,16.20
2022-07-27T15:26:13.351Z,12.60
2022-07-27T15:29:15.731Z,10.10
2022-07-27T15:32:17.873Z,13.00
2022-07-27T15:35:19.768Z,8.70
2022-07-27T15:38:21.589Z,12.70
2022-07-27T15:41:23.485Z,16.20
2022-07-27T15:44:25.265Z,13.00
2022-07-27T15:47:26.968Z,10.10
2022-07-27T15:50:28.769Z,14.20
2022-07-27T15:53:30.604Z,15.00
2022-07-27T15:56:32.400Z,14.50
2022-07-27T15:59:34.217Z,13.30
2022-07-27T16:02:36.008Z,14.10
2022-07-27T16:05:39.177Z,15.60
2022-07-27T16:08:41.089Z,14.30
2022-07-27T16:11:43.010Z,16.80
2022-07-27T16:14:45.077Z,12.40
2022-07-27T16:17:46.780Z,15.30
2022-07-27T16:20:48.723Z,10.70
2022-07-27T16:23:52.123Z,10.40
2022-07-27T16:26:54.529Z,13.40
2022-07-27T16:29:56.236Z,12.20
2022-07-27T16:32:58.709Z,10.00
2022-07-27T16:36:00.586Z,12.30
2022-07-27T16:39:02.340Z,16.10
2022-07-27T16:42:04.376Z,11.20
2022-07-27T16:45:07.030Z,13.00
2022-07-27T16:48:09.037Z,9.90
2022-07-27T16:51:15.132Z,14.40
2022-07-27T16:54:17.074Z,12.70
2022-07-27T16:57:18.878Z,9.00
2022-07-27T17:00:20.846Z,10.20
2022-07-27T17:03:22.729Z,13.30
2022-07-27T17:06:26.223Z,12.80
2022-07-27T17:09:28.070Z,9.30
2022-07-27T17:12:30.390Z,12.70
2022-07-27T17:15:33.380Z,11.20
2022-07-27T17:18:40.194Z,15.10
2022-07-27T17:21:43.295Z,17.70
2022-07-27T17:24:45.347Z,18.40
2022-07-27T17:27:47.642Z,14.80
2022-07-27T17:30:49.403Z,16.30
2022-07-27T17:33:51.478Z,17.30
2022-07-27T17:36:53.289Z,16.20
2022-07-27T17:39:55.093Z,19.00
2022-07-27T17:42:56.829Z,11.70
2022-07-27T17:45:58.943Z,28.00
2022-07-27T17:49:00.813Z,22.00
2022-07-27T17:52:02.659Z,22.70
2022-07-27T17:55:05.405Z,22.00
2022-07-27T17:58:07.235Z,20.30
2022-07-27T18:01:09.388Z,15.70
2022-07-27T18:04:11.306Z,17.60
2022-07-27T18:07:13.534Z,21.50
2022-07-27T18:10:15.296Z,18.70
2022-07-27T18:13:17.799Z,18.30
2022-07-27T18:16:19.747Z,18.50
2022-07-27T18:19:21.767Z,21.30
2022-07-27T18:22:23.641Z,20.60
2022-07-27T18:25:25.415Z,21.10
2022-07-27T18:28:27.168Z,16.60
2022-07-27T18:31:29.037Z,16.10
2022-07-27T18:34:30.979Z,12.60
2022-07-27T18:37:32.792Z,15.70
2022-07-27T18:40:39.430Z,15.30
2022-07-27T18:43:41.174Z,17.90
2022-07-27T18:46:43.208Z,13.50
2022-07-27T18:49:45.678Z,13.80
2022-07-27T18:52:47.384Z,13.80
2022-07-27T18:55:52.709Z,10.30
2022-07-27T18:58:57.590Z,14.30
2022-07-27T19:01:59.359Z,12.90
2022-07-27T19:05:01.186Z,13.60
2022-07-27T19:08:03.813Z,16.00
2022-07-27T19:11:05.530Z,17.30
2022-07-27T19:14:07.329Z,11.60
2022-07-27T19:17:14.601Z,14.90
2022-07-27T19:20:17.024Z,13.30
2022-07-27T19:23:19.001Z,13.00
2022-07-27T19:26:21.081Z,14.40
2022-07-27T19:29:22.986Z,16.40
2022-07-27T19:32:24.787Z,11.80
2022-07-27T19:35:26.827Z,13.30
2022-07-27T19:38:28.573Z,11.90
2022-07-27T19:41:30.973Z,15.80
2022-07-27T19:44:32.707Z,16.10
2022-07-27T19:47:35.244Z,22.80
2022-07-27T19:50:37.136Z,11.50
2022-07-27T19:53:41.139Z,14.00
2022-07-27T19:56:46.234Z,18.10
2022-07-27T19:59:56.039Z,13.80
2022-07-27T20:02:58.585Z,15.70
2022-07-27T20:06:02.338Z,18.50
2022-07-27T20:09:05.794Z,13.30
2022-07-27T20:12:08.399Z,15.30
2022-07-27T20:15:10.459Z,19.90
2022-07-27T20:18:12.280Z,13.60
2022-07-27T20:21:23.028Z,12.10
2022-07-27T20:24:26.923Z,13.70
2022-07-27T20:27:29.025Z,16.50
2022-07-27T20:30:32.048Z,20.10
2022-07-27T20:33:33.845Z,15.70
2022-07-27T20:36:35.801Z,16.20
2022-07-27T20:39:37.669Z,18.70
2022-07-27T20:42:41.161Z,17.40
2022-07-27T20:45:43.437Z,17.90
2022-07-27T20:48:45.233Z,19.00
2022-07-27T20:51:47.132Z,18.40
2022-07-27T20:54:49.282Z,16.60
2022-07-27T20:57:51.074Z,17.20
2022-07-27T21:00:52.846Z,16.70
2022-07-27T21:03:54.602Z,20.60
2022-07-27T21:06:56.403Z,23.00
2022-07-27T21:09:58.410Z,16.80
2022-07-27T21:13:00.179Z,14.90
2022-07-27T21:16:01.984Z,17.40
2022-07-27T21:19:04.089Z,12.00
2022-07-27T21:22:06.161Z,16.10
2022-07-27T21:25:08.762Z,14.80
2022-07-27T21:28:10.542Z,15.50
2022-07-27T21:31:14.307Z,16.40
2022-07-27T21:34:17.823Z,17.20
2022-07-27T21:37:19.729Z,17.50
2022-07-27T21:40:21.449Z,13.50
2022-07-27T21:43:23.219Z,18.50
2022-07-27T21:46:24.936Z,16.00
2022-07-27T21:49:34.169Z,15.00
2022-07-27T21:52:36.564Z,18.30
2022-07-27T21:55:39.173Z,19.10
2022-07-27T21:58:45.130Z,15.10
2022-07-27T22:01:46.859Z,14.70
2022-07-27T22:04:48.650Z,15.90
2022-07-27T22:07:51.261Z,15.30
2022-07-27T22:10:53.722Z,16.80
2022-07-27T22:13:55.508Z,16.30
2022-07-27T22:16:57.524Z,15.60
2022-07-27T22:19:59.360Z,18.20
2022-07-27T22:23:01.314Z,19.40
2022-07-27T22:26:03.144Z,14.60
2022-07-27T22:29:04.896Z,17.80
2022-07-27T22:32:08.023Z,12.70
2022-07-27T22:35:09.896Z,15.20
2022-07-27T22:38:11.722Z,13.90
2022-07-27T22:41:13.966Z,16.50
2022-07-27T22:44:15.890Z,14.90
2022-07-27T22:47:20.985Z,18.10
2022-07-27T22:50:23.371Z,12.80
2022-07-27T22:53:25.150Z,16.30
2022-07-27T22:56:26.949Z,15.40
2022-07-27T22:59:28.833Z,13.70
2022-07-27T23:02:30.825Z,13.90
2022-07-27T23:05:32.600Z,15.20
2022-07-27T23:08:34.358Z,13.20
2022-07-27T23:11:36.033Z,13.70
2022-07-27T23:14:37.760Z,14.10
2022-07-27T23:17:39.491Z,16.80
2022-07-27T23:20:41.354Z,14.40
2022-07-27T23:23:52.164Z,14.30
2022-07-27T23:26:56.501Z,15.70
2022-07-27T23:29:58.182Z,15.90
2022-07-27T23:32:59.966Z,14.40
2022-07-27T23:36:06.440Z,18.10
2022-07-27T23:39:08.183Z,16.60
2022-07-27T23:42:09.864Z,16.90
2022-07-27T23:45:11.856Z,19.10
2022-07-27T23:48:13.747Z,15.60
2022-07-27T23:51:17.925Z,15.70
2022-07-27T23:54:19.754Z,16.10
2022-07-27T23:57:22.362Z,15.50
